Main page
METAR-TAF:

METAR-TAF

Airports :

RAF Fairford

Fairford, England

latitude: 51-41N, longitude: 001-47W, elevation: 87 m

Current weather observation

The report was made 1 hour and 7 minutes ago, at 23:56 UTC
Wind 13 kt from the West/Southwest
Temperature 4°C
Humidity 87%
Pressure 1017 hPa
Visibility 10 km or more
Clear sky

METAR: EGVA 172356Z AUTO 24013KT 9999 CLR 04/02 A3004 RMK AO2 SLP178 60000 T00360015 10067 20036 401110036 52018 $

Time: 01:03 (01:03 UTC)


TAF: missing

Weather observations and forecasts of more than 4000 airports (METAR and TAF reports).

The available stations are represented by yellow and red dots on the map.

Hover mouse over dot to see the name of the station.

Then click to see weather observations and forecasts.

To change the map : click on the green buttons with a black cross to zoom in, on the green button with a dash to zoom out, or on the green arrows for adjacent maps.


METAR-TAF: